Potterville, Michigan
Current Conditions -  °F | °C
As of 8:15 PM on Thursday 27 Nov 2014 (Local Time) from KFPK Reporting Station
Overcast Overcast  
Wind Chill: 16°   Ceiling: 5000
Heat Index: 25°   Visibility: 10mi
Dew Point: 16°   Wind: 8mph
Humidity: 69%   Direction: 300°WNW
Pressure: 30.29"   Gusts: NA
Location:  42.63°N, 84.74°W
Report Text: KFPK 280115Z AUTO 30007KT 10SM OVC050 M04/M09 A3029 RMK AO2 T10411091
Loading
Personal Weather Stations






























Interactive Weather Map New forecast layout! Learn more

10-Day Weather Forecast

Advertisements
Track Severe Weather on mobile